CheckWX is a tool to help pilots better visualize weather data.  It is not intended as a substitute for an official pre-flight weather briefing.

20:24:41 UTC

KLHQ METAR
Fairfield County Airport
Lancaster, Ohio, USA
Current

32 mins ago

KLHQ 201953Z AUTO 27010G16KT 10SM BKN035 OVC047 13/07 A2961 RMK AO2 SLP028 T01280072
Observed
Apr-20 @ 19:53 UTC
Wind
  • 270° at 10 KTS
  • Gusting to 16 KTS
Visibility
10 SM
Flight Rules
VFR
Cloud Levels
  • Broken at 3,500' AGL
  • Overcast at 4,700' AGL
Temperature
13°C / 55°F
Dewpoint
C / 45°F
Humidity
67%
Altimeter
29.61" Hg
Pressure
1002.72 hPa
Previous

2 hours ago

KLHQ 201853Z AUTO 27009KT 10SM FEW036 14/08 A2960 RMK AO2 SLP024 T01440078
Observed
Apr-20 @ 18:53 UTC
Wind
  • 270° at 9 KTS
Visibility
10 SM
Flight Rules
VFR
Cloud Levels
  • Few at 3,600' AGL
Temperature
14°C / 57°F
Dewpoint
C / 46°F
Humidity
67%
Altimeter
29.6" Hg
Pressure
1002.42 hPa
Previous

3 hours ago

KLHQ 201753Z AUTO 23008KT 10SM SCT024 SCT029 BKN095 13/08 A2959 RMK AO2 SLP021 60000 T01330078 10139 20072 51015
Observed
Apr-20 @ 17:53 UTC
Wind
  • 230° at 8 KTS
Visibility
10 SM
Flight Rules
VFR
Cloud Levels
  • Scattered at 2,400' AGL
  • Scattered at 2,900' AGL
  • Broken at 9,500' AGL
Temperature
13°C / 55°F
Dewpoint
C / 46°F
Humidity
72%
Altimeter
29.59" Hg
Pressure
1002.02 hPa